createdAt,value
2019-02-07T19:18:20.951Z,81.43
2019-02-07T19:20:48.657Z,82.19
2019-02-07T19:23:16.482Z,81.63
2019-02-07T19:25:44.455Z,80.66
2019-02-07T19:28:12.408Z,80.95
2019-02-07T19:30:40.219Z,80.47
2019-02-07T19:33:08.164Z,80.66
2019-02-07T19:35:35.957Z,79.94
2019-02-07T19:38:04.454Z,80.24
2019-02-07T19:40:32.319Z,80.24
2019-02-07T19:42:59.964Z,80.29
2019-02-07T19:45:28.459Z,79.67
2019-02-07T19:47:57.073Z,80.04
2019-02-07T19:50:25.866Z,80.69
2019-02-07T19:52:53.659Z,80.33
2019-02-07T19:55:26.117Z,80.47
2019-02-07T19:57:54.166Z,80.24
2019-02-07T20:00:23.312Z,80.33
2019-02-07T20:02:51.255Z,81.06
2019-02-07T20:05:20.207Z,81.37
2019-02-07T20:08:25.359Z,81.69
2019-02-07T20:10:53.945Z,80.81
2019-02-07T20:13:22.466Z,81.25
2019-02-07T20:15:51.317Z,81.28
2019-02-07T20:18:19.895Z,81.22
2019-02-07T20:20:48.474Z,80.96
2019-02-07T20:23:17.429Z,80.48
2019-02-07T20:25:46.026Z,80.63
2019-02-07T20:28:14.665Z,81.03
2019-02-07T20:30:44.834Z,80.48
2019-02-07T20:33:13.709Z,80.64
2019-02-07T20:35:42.541Z,80.73
2019-02-07T20:38:11.541Z,80.27
2019-02-07T20:40:40.785Z,79.88
2019-02-07T20:43:09.503Z,80.37
2019-02-07T20:45:38.563Z,81.00
2019-02-07T20:48:08.470Z,80.06
2019-02-07T20:50:37.206Z,81.05
2019-02-07T20:53:07.592Z,80.53
2019-02-07T20:55:36.296Z,80.30
2019-02-07T20:58:05.646Z,80.05
2019-02-07T21:00:36.834Z,80.40
2019-02-07T21:03:06.705Z,79.93
2019-02-07T21:05:36.006Z,80.97
2019-02-07T21:08:04.854Z,80.40
2019-02-07T21:10:40.872Z,80.21
2019-02-07T21:13:09.927Z,80.89
2019-02-07T21:15:38.529Z,79.93
2019-02-07T21:18:07.269Z,79.67
2019-02-07T21:20:36.826Z,79.32
2019-02-07T21:23:06.313Z,79.05
2019-02-07T21:25:49.499Z,78.87
2019-02-07T21:28:18.215Z,79.35
2019-02-07T21:30:46.894Z,79.18
2019-02-07T21:33:16.751Z,78.42
2019-02-07T21:35:45.329Z,78.20
2019-02-07T21:38:16.533Z,77.75
2019-02-07T21:40:45.288Z,77.82
2019-02-07T21:43:14.647Z,77.18
2019-02-07T21:45:43.206Z,77.86
2019-02-07T21:48:11.828Z,78.65
2019-02-07T21:50:40.429Z,77.88
2019-02-07T21:53:08.934Z,78.65
2019-02-07T21:55:38.185Z,78.46
2019-02-07T21:58:08.627Z,77.39
2019-02-07T22:00:44.790Z,77.91
2019-02-07T22:03:14.434Z,77.50
2019-02-07T22:05:43.657Z,77.71
2019-02-07T22:08:12.232Z,76.91
2019-02-07T22:10:40.900Z,77.44
2019-02-07T22:13:10.278Z,77.86
2019-02-07T22:15:38.800Z,77.58
2019-02-07T22:18:07.885Z,77.88
2019-02-07T22:20:36.349Z,77.59
2019-02-07T22:23:05.310Z,76.29
2019-02-07T22:25:33.779Z,77.74
2019-02-07T22:28:02.580Z,78.28
2019-02-07T22:30:33.962Z,78.45
2019-02-07T22:33:02.782Z,78.05
2019-02-07T22:35:31.564Z,78.44
2019-02-07T22:38:00.697Z,78.27
2019-02-07T22:40:29.092Z,78.26
2019-02-07T22:42:59.460Z,77.94
2019-02-07T22:45:29.117Z,76.83
2019-02-07T22:47:57.651Z,76.55
2019-02-07T22:50:30.393Z,77.09
2019-02-07T22:53:00.728Z,77.24
2019-02-07T22:55:29.498Z,77.28
2019-02-07T22:57:58.166Z,77.33
2019-02-07T23:00:34.401Z,77.30
2019-02-07T23:03:05.110Z,77.25
2019-02-07T23:05:33.607Z,77.49
2019-02-07T23:08:02.248Z,76.90
2019-02-07T23:10:30.815Z,76.88
2019-02-07T23:13:00.623Z,76.74
2019-02-07T23:15:29.227Z,78.34
2019-02-07T23:17:57.698Z,77.04
2019-02-07T23:20:26.703Z,77.55
2019-02-07T23:22:55.247Z,77.98
2019-02-07T23:25:23.869Z,77.50
2019-02-07T23:27:52.263Z,76.40
2019-02-07T23:30:21.325Z,77.10
2019-02-07T23:32:49.991Z,76.86
2019-02-07T23:35:18.396Z,76.85
2019-02-07T23:37:46.983Z,77.24
2019-02-07T23:40:22.825Z,76.82
2019-02-07T23:42:51.558Z,76.80
2019-02-07T23:45:24.655Z,76.20
2019-02-07T23:47:53.132Z,76.51
2019-02-07T23:50:21.636Z,76.93
2019-02-07T23:52:50.096Z,76.99
2019-02-07T23:55:18.532Z,77.28
2019-02-07T23:57:47.529Z,77.14
